Aeroporto :
LOGIN :

Iscrizione | Disclaimer

   EN    FR    IT 

 










Sommario :    VFR   VFR Marginale   IFR   IFR Intensivo   IFR Molto Intensivo
Visibilità : 
Base nubi : 
>= 8 km
>= 3000ft
5 / 8 km
1000 / 3000 ft
1500m / 5 km
500 / 1000 ft
800 / 1500m
200 / 500 ft
< 800m
< 200 ft
Simboli :   Temporali  Nebbia  Neve Forte  Precipitazioni Forti  Vento > 20 kt
SIGMETs :   Varie  Temporali  Ghiacco  Turbolenza  Onda orograficha  Ceneri Vulcaniche






- Altitudine del aeroporto : 191 ft
- Codice IATA : RNB


ESDF - Ronneby

ULTIMO METAR :
  • 121750Z 15002KT 9999 R01/0700VP2000D R19/0550V0800D MIFG FEW018 02/02 Q0997

METARs OBSOLETI :
  • 121720Z 16002KT 9999 MIFG BKN020 03/03 Q0997
  • 121650Z 16001KT 9999 SCT009 BKN045 03/03 Q0997
  • 121620Z 21001KT 9999 BKN009 03/03 Q0997
  • 121550Z 20002KT 9999 BKN008 03/03 Q0997
  • 121520Z 24003KT 200V270 9999 SCT007 BKN010 03/03 Q0997

TAF AMD TAF ESDF
Valido dal 12 a 18 ore il 12 a 23 ore UTC


121805Z 1218/1223 19005KT 9999 BKN040
PROB40 1218/1220 0800 BCFG
PROB40 1220/1223 2000 BR DZ OVC003 RMK MIL



MetMap, La meteo Aeronautica in un colpo d'occhio ! - Copyright ORBIFLY Dicembre 2007 - Disclaimer

ORBIFLY MET'MAP TEAM :

Programmazione e sviluppo : Alexandra Zaïnal
Concezione : Baudouin d'Aumeries
Aiuto per la programmazione : Marc-Olivier Méhu
Supporto tecnico e logistico : Manuel Goepfert
Aiuto per la traduzione : Arnaldo La Scala

Contatto : metmap@orbifly.com




FONTI E CREDITI :

   NOAA